Chiricahua National Monument, Arizona
Current Conditions -  °F | °C
As of 10:51 AM on Friday 24 Oct 2014 (Local Time) from KSAD Reporting Station
Clear Clear  
Wind Chill: 76°   Ceiling: Unl
Heat Index: 76°   Visibility: 10mi
Dew Point: 47°   Wind: 5mph
Humidity: 36%   Direction: 130°SE
Pressure: 30.2"   Gusts: NA
Location:  32.5598°N, 110.08°W
Report Text: KSAD 241751Z AUTO 13004KT 10SM CLR 24/08 A3020 RMK AO2 SLP189 T02440083 10250 20117 50001
Loading
Personal Weather Stations






























Interactive Weather Map
Tropical Storm Tracking
New forecast layout! Learn more

10-Day Weather Forecast

Advertisements
Track Severe Weather on mobile